sensor_id;sensor_type;location;lat;lon;timestamp;P1;durP1;ratioP1;P2;durP2;ratioP2
6523;SDS011;3295;38.928;-77.052;2023-05-10T00:01:53;3.87;;;1.80;;
6523;SDS011;3295;38.928;-77.052;2023-05-10T00:04:20;3.53;;;1.93;;
6523;SDS011;3295;38.928;-77.052;2023-05-10T00:06:49;1.97;;;1.40;;
6523;SDS011;3295;38.928;-77.052;2023-05-10T00:09:16;2.20;;;1.60;;
6523;SDS011;3295;38.928;-77.052;2023-05-10T00:11:44;3.77;;;1.77;;
6523;SDS011;3295;38.928;-77.052;2023-05-10T00:14:11;2.80;;;1.80;;
6523;SDS011;3295;38.928;-77.052;2023-05-10T00:16:38;2.67;;;1.60;;
6523;SDS011;3295;38.928;-77.052;2023-05-10T00:19:06;2.33;;;1.70;;
6523;SDS011;3295;38.928;-77.052;2023-05-10T00:21:33;2.17;;;1.60;;
6523;SDS011;3295;38.928;-77.052;2023-05-10T00:24:02;2.70;;;1.50;;
6523;SDS011;3295;38.928;-77.052;2023-05-10T00:26:29;2.27;;;1.60;;
6523;SDS011;3295;38.928;-77.052;2023-05-10T00:28:57;3.33;;;1.60;;
6523;SDS011;3295;38.928;-77.052;2023-05-10T00:31:24;3.00;;;1.80;;
6523;SDS011;3295;38.928;-77.052;2023-05-10T00:33:51;2.30;;;1.80;;
6523;SDS011;3295;38.928;-77.052;2023-05-10T00:36:18;4.03;;;1.93;;
6523;SDS011;3295;38.928;-77.052;2023-05-10T00:38:46;2.63;;;2.00;;
6523;SDS011;3295;38.928;-77.052;2023-05-10T00:41:14;4.13;;;2.03;;
6523;SDS011;3295;38.928;-77.052;2023-05-10T00:43:42;3.00;;;1.90;;
6523;SDS011;3295;38.928;-77.052;2023-05-10T00:46:09;3.33;;;1.80;;
6523;SDS011;3295;38.928;-77.052;2023-05-10T00:48:37;2.33;;;1.83;;
6523;SDS011;3295;38.928;-77.052;2023-05-10T00:51:04;3.80;;;1.77;;
6523;SDS011;3295;38.928;-77.052;2023-05-10T00:53:31;3.00;;;2.13;;
6523;SDS011;3295;38.928;-77.052;2023-05-10T00:55:59;3.57;;;1.80;;
6523;SDS011;3295;38.928;-77.052;2023-05-10T00:58:30;3.40;;;2.00;;
6523;SDS011;3295;38.928;-77.052;2023-05-10T01:00:57;2.03;;;1.80;;
6523;SDS011;3295;38.928;-77.052;2023-05-10T01:03:24;2.73;;;1.80;;
6523;SDS011;3295;38.928;-77.052;2023-05-10T01:05:51;2.87;;;1.90;;
6523;SDS011;3295;38.928;-77.052;2023-05-10T01:08:19;2.57;;;1.80;;
6523;SDS011;3295;38.928;-77.052;2023-05-10T01:10:46;2.17;;;1.50;;
6523;SDS011;3295;38.928;-77.052;2023-05-10T01:13:15;2.77;;;1.83;;
6523;SDS011;3295;38.928;-77.052;2023-05-10T01:15:47;3.03;;;1.80;;
6523;SDS011;3295;38.928;-77.052;2023-05-10T01:18:14;3.30;;;1.70;;
6523;SDS011;3295;38.928;-77.052;2023-05-10T01:20:43;3.07;;;1.90;;
6523;SDS011;3295;38.928;-77.052;2023-05-10T01:26:02;3.03;;;2.27;;
6523;SDS011;3295;38.928;-77.052;2023-05-10T01:28:47;3.67;;;1.97;;
6523;SDS011;3295;38.928;-77.052;2023-05-10T01:31:21;2.50;;;1.83;;
6523;SDS011;3295;38.928;-77.052;2023-05-10T01:33:52;4.63;;;2.17;;
6523;SDS011;3295;38.928;-77.052;2023-05-10T01:36:23;2.73;;;2.10;;
6523;SDS011;3295;38.928;-77.052;2023-05-10T01:38:54;3.37;;;2.40;;
6523;SDS011;3295;38.928;-77.052;2023-05-10T01:41:25;3.77;;;2.47;;
6523;SDS011;3295;38.928;-77.052;2023-05-10T01:43:57;4.73;;;2.20;;
6523;SDS011;3295;38.928;-77.052;2023-05-10T01:46:28;3.20;;;1.93;;
6523;SDS011;3295;38.928;-77.052;2023-05-10T01:48:58;3.50;;;1.97;;
6523;SDS011;3295;38.928;-77.052;2023-05-10T01:51:29;4.57;;;2.50;;
6523;SDS011;3295;38.928;-77.052;2023-05-10T01:53:59;3.43;;;2.23;;
6523;SDS011;3295;38.928;-77.052;2023-05-10T01:56:28;4.20;;;2.50;;
6523;SDS011;3295;38.928;-77.052;2023-05-10T01:58:56;4.50;;;2.13;;
6523;SDS011;3295;38.928;-77.052;2023-05-10T02:01:24;2.63;;;2.00;;
6523;SDS011;3295;38.928;-77.052;2023-05-10T02:03:52;5.17;;;2.73;;
6523;SDS011;3295;38.928;-77.052;2023-05-10T02:06:22;3.27;;;2.20;;
6523;SDS011;3295;38.928;-77.052;2023-05-10T02:08:50;3.63;;;2.20;;
6523;SDS011;3295;38.928;-77.052;2023-05-10T02:11:19;3.00;;;2.03;;
6523;SDS011;3295;38.928;-77.052;2023-05-10T02:13:48;4.00;;;2.20;;
6523;SDS011;3295;38.928;-77.052;2023-05-10T02:16:16;3.63;;;2.17;;
6523;SDS011;3295;38.928;-77.052;2023-05-10T02:18:44;3.23;;;2.13;;
6523;SDS011;3295;38.928;-77.052;2023-05-10T02:21:11;3.33;;;2.30;;
6523;SDS011;3295;38.928;-77.052;2023-05-10T02:23:41;3.47;;;2.40;;
6523;SDS011;3295;38.928;-77.052;2023-05-10T02:26:09;3.43;;;2.03;;
6523;SDS011;3295;38.928;-77.052;2023-05-10T02:28:38;2.73;;;2.10;;
6523;SDS011;3295;38.928;-77.052;2023-05-10T02:31:07;3.40;;;2.20;;
6523;SDS011;3295;38.928;-77.052;2023-05-10T02:33:35;4.20;;;2.40;;
6523;SDS011;3295;38.928;-77.052;2023-05-10T02:36:04;3.90;;;2.23;;
6523;SDS011;3295;38.928;-77.052;2023-05-10T02:38:31;3.20;;;2.17;;
6523;SDS011;3295;38.928;-77.052;2023-05-10T02:41:01;4.77;;;2.57;;
6523;SDS011;3295;38.928;-77.052;2023-05-10T02:43:31;2.53;;;1.90;;
6523;SDS011;3295;38.928;-77.052;2023-05-10T02:45:59;4.53;;;2.40;;
6523;SDS011;3295;38.928;-77.052;2023-05-10T02:48:26;3.73;;;2.37;;
6523;SDS011;3295;38.928;-77.052;2023-05-10T02:50:55;3.60;;;2.20;;
6523;SDS011;3295;38.928;-77.052;2023-05-10T02:53:24;3.40;;;2.30;;
6523;SDS011;3295;38.928;-77.052;2023-05-10T02:55:54;3.70;;;2.33;;
6523;SDS011;3295;38.928;-77.052;2023-05-10T02:58:25;4.23;;;2.20;;
6523;SDS011;3295;38.928;-77.052;2023-05-10T03:00:53;2.87;;;2.00;;
6523;SDS011;3295;38.928;-77.052;2023-05-10T03:03:21;8.37;;;2.47;;
6523;SDS011;3295;38.928;-77.052;2023-05-10T03:05:48;3.53;;;2.10;;
6523;SDS011;3295;38.928;-77.052;2023-05-10T03:08:15;5.73;;;2.77;;
6523;SDS011;3295;38.928;-77.052;2023-05-10T03:10:45;5.57;;;2.43;;
6523;SDS011;3295;38.928;-77.052;2023-05-10T03:13:16;5.27;;;2.23;;
6523;SDS011;3295;38.928;-77.052;2023-05-10T03:15:51;3.60;;;2.60;;
6523;SDS011;3295;38.928;-77.052;2023-05-10T03:18:21;3.70;;;2.13;;
6523;SDS011;3295;38.928;-77.052;2023-05-10T03:20:49;3.23;;;2.20;;
6523;SDS011;3295;38.928;-77.052;2023-05-10T03:23:21;4.20;;;2.40;;
6523;SDS011;3295;38.928;-77.052;2023-05-10T03:25:48;4.80;;;2.53;;
6523;SDS011;3295;38.928;-77.052;2023-05-10T03:28:16;6.63;;;2.50;;
6523;SDS011;3295;38.928;-77.052;2023-05-10T03:30:44;4.40;;;2.17;;
6523;SDS011;3295;38.928;-77.052;2023-05-10T03:33:13;4.70;;;2.43;;
6523;SDS011;3295;38.928;-77.052;2023-05-10T03:35:40;3.80;;;2.50;;
6523;SDS011;3295;38.928;-77.052;2023-05-10T03:38:09;3.40;;;2.20;;
6523;SDS011;3295;38.928;-77.052;2023-05-10T03:40:36;4.67;;;2.30;;
6523;SDS011;3295;38.928;-77.052;2023-05-10T03:43:04;4.43;;;2.40;;
6523;SDS011;3295;38.928;-77.052;2023-05-10T03:45:31;5.10;;;2.53;;
6523;SDS011;3295;38.928;-77.052;2023-05-10T03:47:58;4.87;;;2.70;;
6523;SDS011;3295;38.928;-77.052;2023-05-10T03:50:27;3.27;;;2.30;;
6523;SDS011;3295;38.928;-77.052;2023-05-10T03:52:55;4.50;;;2.30;;
6523;SDS011;3295;38.928;-77.052;2023-05-10T03:55:22;5.03;;;2.53;;
6523;SDS011;3295;38.928;-77.052;2023-05-10T03:57:50;3.67;;;2.03;;
6523;SDS011;3295;38.928;-77.052;2023-05-10T04:00:19;5.00;;;2.77;;
6523;SDS011;3295;38.928;-77.052;2023-05-10T04:02:46;3.63;;;2.30;;
6523;SDS011;3295;38.928;-77.052;2023-05-10T04:05:13;4.03;;;2.30;;
6523;SDS011;3295;38.928;-77.052;2023-05-10T04:07:42;5.17;;;2.60;;
6523;SDS011;3295;38.928;-77.052;2023-05-10T04:10:10;3.63;;;2.27;;
6523;SDS011;3295;38.928;-77.052;2023-05-10T04:12:38;4.10;;;2.83;;
6523;SDS011;3295;38.928;-77.052;2023-05-10T04:15:05;3.93;;;2.50;;
6523;SDS011;3295;38.928;-77.052;2023-05-10T04:17:33;4.73;;;2.30;;
6523;SDS011;3295;38.928;-77.052;2023-05-10T04:20:00;4.43;;;2.57;;
6523;SDS011;3295;38.928;-77.052;2023-05-10T04:22:28;5.13;;;2.53;;
6523;SDS011;3295;38.928;-77.052;2023-05-10T04:24:57;9.50;;;3.13;;
6523;SDS011;3295;38.928;-77.052;2023-05-10T04:27:24;4.23;;;2.20;;
6523;SDS011;3295;38.928;-77.052;2023-05-10T04:29:52;5.33;;;2.60;;
6523;SDS011;3295;38.928;-77.052;2023-05-10T04:32:19;3.83;;;2.50;;
6523;SDS011;3295;38.928;-77.052;2023-05-10T04:34:46;7.50;;;2.50;;
6523;SDS011;3295;38.928;-77.052;2023-05-10T04:37:14;3.77;;;2.47;;
6523;SDS011;3295;38.928;-77.052;2023-05-10T04:39:41;5.87;;;2.70;;
6523;SDS011;3295;38.928;-77.052;2023-05-10T04:42:10;5.97;;;2.80;;
6523;SDS011;3295;38.928;-77.052;2023-05-10T04:44:37;6.33;;;2.80;;
6523;SDS011;3295;38.928;-77.052;2023-05-10T04:47:05;3.93;;;2.50;;
6523;SDS011;3295;38.928;-77.052;2023-05-10T04:49:32;5.10;;;2.77;;
6523;SDS011;3295;38.928;-77.052;2023-05-10T04:51:59;5.60;;;2.50;;
6523;SDS011;3295;38.928;-77.052;2023-05-10T04:54:27;6.17;;;2.57;;
6523;SDS011;3295;38.928;-77.052;2023-05-10T04:56:54;5.47;;;2.30;;
6523;SDS011;3295;38.928;-77.052;2023-05-10T04:59:23;4.80;;;2.80;;
6523;SDS011;3295;38.928;-77.052;2023-05-10T05:01:50;5.40;;;2.60;;
6523;SDS011;3295;38.928;-77.052;2023-05-10T05:04:17;5.30;;;2.80;;
6523;SDS011;3295;38.928;-77.052;2023-05-10T05:06:44;5.80;;;2.53;;
6523;SDS011;3295;38.928;-77.052;2023-05-10T05:09:11;5.33;;;3.00;;
6523;SDS011;3295;38.928;-77.052;2023-05-10T05:11:39;4.47;;;2.43;;
6523;SDS011;3295;38.928;-77.052;2023-05-10T05:14:06;4.30;;;2.37;;
6523;SDS011;3295;38.928;-77.052;2023-05-10T05:16:35;3.47;;;2.40;;
6523;SDS011;3295;38.928;-77.052;2023-05-10T05:19:02;6.20;;;3.17;;
6523;SDS011;3295;38.928;-77.052;2023-05-10T05:21:29;4.90;;;2.47;;
6523;SDS011;3295;38.928;-77.052;2023-05-10T05:23:57;5.10;;;2.40;;
6523;SDS011;3295;38.928;-77.052;2023-05-10T05:26:26;3.77;;;2.07;;
6523;SDS011;3295;38.928;-77.052;2023-05-10T05:28:53;5.20;;;2.60;;
6523;SDS011;3295;38.928;-77.052;2023-05-10T05:31:21;6.57;;;2.83;;
6523;SDS011;3295;38.928;-77.052;2023-05-10T05:33:49;4.57;;;2.40;;
6523;SDS011;3295;38.928;-77.052;2023-05-10T05:36:17;4.77;;;2.77;;
6523;SDS011;3295;38.928;-77.052;2023-05-10T05:38:44;4.50;;;2.57;;
6523;SDS011;3295;38.928;-77.052;2023-05-10T05:41:11;5.10;;;2.40;;
6523;SDS011;3295;38.928;-77.052;2023-05-10T05:43:38;3.47;;;2.20;;
6523;SDS011;3295;38.928;-77.052;2023-05-10T05:46:06;4.80;;;2.37;;
6523;SDS011;3295;38.928;-77.052;2023-05-10T05:48:33;4.93;;;2.80;;
6523;SDS011;3295;38.928;-77.052;2023-05-10T05:51:02;6.07;;;2.73;;
6523;SDS011;3295;38.928;-77.052;2023-05-10T05:53:29;6.77;;;2.90;;
6523;SDS011;3295;38.928;-77.052;2023-05-10T05:55:56;6.20;;;2.80;;
6523;SDS011;3295;38.928;-77.052;2023-05-10T05:58:24;4.47;;;2.73;;
6523;SDS011;3295;38.928;-77.052;2023-05-10T06:00:53;4.10;;;2.43;;
6523;SDS011;3295;38.928;-77.052;2023-05-10T06:03:20;4.83;;;2.93;;
6523;SDS011;3295;38.928;-77.052;2023-05-10T06:05:47;4.43;;;2.50;;
6523;SDS011;3295;38.928;-77.052;2023-05-10T06:08:16;4.67;;;2.80;;
6523;SDS011;3295;38.928;-77.052;2023-05-10T06:10:43;4.57;;;2.50;;
6523;SDS011;3295;38.928;-77.052;2023-05-10T06:13:10;3.47;;;2.40;;
6523;SDS011;3295;38.928;-77.052;2023-05-10T06:15:37;4.70;;;2.50;;
6523;SDS011;3295;38.928;-77.052;2023-05-10T06:18:05;4.33;;;2.57;;
6523;SDS011;3295;38.928;-77.052;2023-05-10T06:20:32;3.87;;;2.43;;
6523;SDS011;3295;38.928;-77.052;2023-05-10T06:22:59;4.73;;;2.80;;
6523;SDS011;3295;38.928;-77.052;2023-05-10T06:25:28;4.03;;;2.67;;
6523;SDS011;3295;38.928;-77.052;2023-05-10T06:27:55;4.13;;;2.43;;
6523;SDS011;3295;38.928;-77.052;2023-05-10T06:30:24;5.03;;;2.87;;
6523;SDS011;3295;38.928;-77.052;2023-05-10T06:32:53;4.27;;;2.40;;
6523;SDS011;3295;38.928;-77.052;2023-05-10T06:35:21;4.97;;;2.20;;
6523;SDS011;3295;38.928;-77.052;2023-05-10T06:37:48;4.40;;;2.70;;
6523;SDS011;3295;38.928;-77.052;2023-05-10T06:40:16;4.80;;;2.70;;
6523;SDS011;3295;38.928;-77.052;2023-05-10T06:42:45;7.27;;;2.97;;
6523;SDS011;3295;38.928;-77.052;2023-05-10T06:45:12;4.17;;;2.70;;
6523;SDS011;3295;38.928;-77.052;2023-05-10T06:47:39;4.47;;;2.70;;
6523;SDS011;3295;38.928;-77.052;2023-05-10T06:50:07;4.30;;;2.37;;
6523;SDS011;3295;38.928;-77.052;2023-05-10T06:52:35;3.67;;;2.47;;
6523;SDS011;3295;38.928;-77.052;2023-05-10T06:55:02;5.43;;;3.00;;
6523;SDS011;3295;38.928;-77.052;2023-05-10T06:57:30;6.57;;;3.17;;
6523;SDS011;3295;38.928;-77.052;2023-05-10T06:59:58;5.03;;;2.77;;
6523;SDS011;3295;38.928;-77.052;2023-05-10T07:02:26;4.10;;;2.80;;
6523;SDS011;3295;38.928;-77.052;2023-05-10T07:04:53;3.10;;;2.30;;
6523;SDS011;3295;38.928;-77.052;2023-05-10T07:07:21;2.90;;;2.13;;
6523;SDS011;3295;38.928;-77.052;2023-05-10T07:09:48;4.40;;;2.50;;
6523;SDS011;3295;38.928;-77.052;2023-05-10T07:12:16;5.27;;;2.57;;
6523;SDS011;3295;38.928;-77.052;2023-05-10T07:14:43;3.60;;;2.43;;
6523;SDS011;3295;38.928;-77.052;2023-05-10T07:17:12;4.37;;;2.47;;
6523;SDS011;3295;38.928;-77.052;2023-05-10T07:19:39;3.83;;;2.40;;
6523;SDS011;3295;38.928;-77.052;2023-05-10T07:22:06;4.80;;;2.80;;
6523;SDS011;3295;38.928;-77.052;2023-05-10T07:24:34;4.63;;;2.50;;
6523;SDS011;3295;38.928;-77.052;2023-05-10T07:27:01;4.37;;;2.50;;
6523;SDS011;3295;38.928;-77.052;2023-05-10T07:29:29;4.43;;;2.43;;
6523;SDS011;3295;38.928;-77.052;2023-05-10T07:31:56;4.23;;;2.47;;
6523;SDS011;3295;38.928;-77.052;2023-05-10T07:34:25;3.73;;;2.50;;
6523;SDS011;3295;38.928;-77.052;2023-05-10T07:36:52;5.20;;;2.70;;
6523;SDS011;3295;38.928;-77.052;2023-05-10T07:39:20;4.10;;;2.20;;
6523;SDS011;3295;38.928;-77.052;2023-05-10T07:41:47;5.13;;;2.40;;
6523;SDS011;3295;38.928;-77.052;2023-05-10T07:44:14;3.97;;;2.20;;
6523;SDS011;3295;38.928;-77.052;2023-05-10T07:46:43;3.70;;;2.43;;
6523;SDS011;3295;38.928;-77.052;2023-05-10T07:49:11;6.47;;;2.67;;
6523;SDS011;3295;38.928;-77.052;2023-05-10T07:51:39;4.87;;;2.50;;
6523;SDS011;3295;38.928;-77.052;2023-05-10T07:54:07;4.90;;;2.50;;
6523;SDS011;3295;38.928;-77.052;2023-05-10T07:56:34;4.50;;;2.77;;
6523;SDS011;3295;38.928;-77.052;2023-05-10T07:59:02;3.70;;;2.40;;
6523;SDS011;3295;38.928;-77.052;2023-05-10T08:01:30;6.07;;;2.60;;
6523;SDS011;3295;38.928;-77.052;2023-05-10T08:03:58;4.53;;;2.40;;
6523;SDS011;3295;38.928;-77.052;2023-05-10T08:06:25;4.50;;;2.80;;
6523;SDS011;3295;38.928;-77.052;2023-05-10T08:08:56;4.07;;;2.43;;
6523;SDS011;3295;38.928;-77.052;2023-05-10T08:11:23;3.50;;;2.40;;
6523;SDS011;3295;38.928;-77.052;2023-05-10T08:13:53;3.03;;;2.23;;
6523;SDS011;3295;38.928;-77.052;2023-05-10T08:16:20;4.60;;;2.60;;
6523;SDS011;3295;38.928;-77.052;2023-05-10T08:18:47;4.57;;;2.40;;
6523;SDS011;3295;38.928;-77.052;2023-05-10T08:21:16;3.53;;;2.20;;
6523;SDS011;3295;38.928;-77.052;2023-05-10T08:23:44;4.33;;;2.27;;
6523;SDS011;3295;38.928;-77.052;2023-05-10T08:26:13;4.83;;;2.30;;
6523;SDS011;3295;38.928;-77.052;2023-05-10T08:28:40;3.87;;;2.30;;
6523;SDS011;3295;38.928;-77.052;2023-05-10T08:31:08;6.97;;;2.50;;
6523;SDS011;3295;38.928;-77.052;2023-05-10T08:33:35;5.43;;;2.40;;
6523;SDS011;3295;38.928;-77.052;2023-05-10T08:36:02;3.77;;;2.30;;
6523;SDS011;3295;38.928;-77.052;2023-05-10T08:38:29;4.03;;;2.40;;
6523;SDS011;3295;38.928;-77.052;2023-05-10T08:40:56;5.67;;;2.50;;
6523;SDS011;3295;38.928;-77.052;2023-05-10T08:43:27;5.23;;;2.47;;
6523;SDS011;3295;38.928;-77.052;2023-05-10T08:45:55;4.17;;;2.37;;
6523;SDS011;3295;38.928;-77.052;2023-05-10T08:48:23;4.50;;;2.80;;
6523;SDS011;3295;38.928;-77.052;2023-05-10T08:50:51;3.50;;;2.30;;
6523;SDS011;3295;38.928;-77.052;2023-05-10T08:53:19;3.77;;;2.30;;
6523;SDS011;3295;38.928;-77.052;2023-05-10T08:55:46;3.63;;;2.30;;
6523;SDS011;3295;38.928;-77.052;2023-05-10T08:58:14;6.53;;;2.30;;
6523;SDS011;3295;38.928;-77.052;2023-05-10T09:00:43;4.80;;;2.63;;
6523;SDS011;3295;38.928;-77.052;2023-05-10T09:03:10;5.33;;;2.23;;
6523;SDS011;3295;38.928;-77.052;2023-05-10T09:05:37;5.80;;;2.30;;
6523;SDS011;3295;38.928;-77.052;2023-05-10T09:08:05;3.63;;;2.30;;
6523;SDS011;3295;38.928;-77.052;2023-05-10T09:10:32;6.27;;;2.63;;
6523;SDS011;3295;38.928;-77.052;2023-05-10T09:13:00;4.37;;;2.40;;
6523;SDS011;3295;38.928;-77.052;2023-05-10T09:15:27;3.63;;;2.20;;
6523;SDS011;3295;38.928;-77.052;2023-05-10T09:17:56;3.37;;;2.27;;
6523;SDS011;3295;38.928;-77.052;2023-05-10T09:20:27;3.23;;;2.40;;
6523;SDS011;3295;38.928;-77.052;2023-05-10T09:22:54;3.17;;;2.30;;
6523;SDS011;3295;38.928;-77.052;2023-05-10T09:25:22;3.30;;;2.10;;
6523;SDS011;3295;38.928;-77.052;2023-05-10T09:27:49;4.60;;;2.20;;
6523;SDS011;3295;38.928;-77.052;2023-05-10T09:30:16;3.43;;;2.20;;
6523;SDS011;3295;38.928;-77.052;2023-05-10T09:32:44;3.77;;;2.30;;
6523;SDS011;3295;38.928;-77.052;2023-05-10T09:35:13;3.30;;;2.00;;
6523;SDS011;3295;38.928;-77.052;2023-05-10T09:37:41;4.30;;;2.60;;
6523;SDS011;3295;38.928;-77.052;2023-05-10T09:40:11;4.73;;;2.10;;
6523;SDS011;3295;38.928;-77.052;2023-05-10T09:42:38;2.43;;;2.00;;
6523;SDS011;3295;38.928;-77.052;2023-05-10T09:45:06;3.83;;;2.50;;
6523;SDS011;3295;38.928;-77.052;2023-05-10T09:47:33;3.50;;;2.07;;
6523;SDS011;3295;38.928;-77.052;2023-05-10T09:50:01;3.77;;;2.00;;
6523;SDS011;3295;38.928;-77.052;2023-05-10T09:52:31;4.20;;;2.10;;
6523;SDS011;3295;38.928;-77.052;2023-05-10T09:55:12;4.30;;;2.47;;
6523;SDS011;3295;38.928;-77.052;2023-05-10T09:57:39;3.60;;;2.17;;
6523;SDS011;3295;38.928;-77.052;2023-05-10T10:00:07;3.47;;;2.10;;
6523;SDS011;3295;38.928;-77.052;2023-05-10T10:02:35;5.63;;;2.20;;
6523;SDS011;3295;38.928;-77.052;2023-05-10T10:05:02;4.23;;;2.17;;
6523;SDS011;3295;38.928;-77.052;2023-05-10T10:07:31;2.73;;;1.90;;
6523;SDS011;3295;38.928;-77.052;2023-05-10T10:09:59;3.03;;;2.13;;
6523;SDS011;3295;38.928;-77.052;2023-05-10T10:12:29;4.63;;;2.00;;
6523;SDS011;3295;38.928;-77.052;2023-05-10T10:14:56;3.40;;;2.00;;
6523;SDS011;3295;38.928;-77.052;2023-05-10T10:17:24;3.17;;;2.20;;
6523;SDS011;3295;38.928;-77.052;2023-05-10T10:19:52;5.43;;;2.40;;
6523;SDS011;3295;38.928;-77.052;2023-05-10T10:22:19;3.60;;;2.10;;
6523;SDS011;3295;38.928;-77.052;2023-05-10T10:24:48;4.20;;;2.07;;
6523;SDS011;3295;38.928;-77.052;2023-05-10T10:27:19;2.93;;;2.00;;
6523;SDS011;3295;38.928;-77.052;2023-05-10T10:29:49;3.30;;;1.80;;
6523;SDS011;3295;38.928;-77.052;2023-05-10T10:32:20;5.63;;;2.13;;
6523;SDS011;3295;38.928;-77.052;2023-05-10T10:34:48;2.90;;;2.10;;
6523;SDS011;3295;38.928;-77.052;2023-05-10T10:37:17;4.10;;;1.90;;
6523;SDS011;3295;38.928;-77.052;2023-05-10T10:39:44;3.50;;;2.10;;
6523;SDS011;3295;38.928;-77.052;2023-05-10T10:42:13;4.57;;;2.50;;
6523;SDS011;3295;38.928;-77.052;2023-05-10T10:44:40;3.77;;;2.27;;
6523;SDS011;3295;38.928;-77.052;2023-05-10T10:47:22;2.83;;;2.00;;
6523;SDS011;3295;38.928;-77.052;2023-05-10T10:49:50;3.33;;;2.20;;
6523;SDS011;3295;38.928;-77.052;2023-05-10T10:52:22;2.90;;;1.93;;
6523;SDS011;3295;38.928;-77.052;2023-05-10T10:54:52;4.10;;;2.10;;
6523;SDS011;3295;38.928;-77.052;2023-05-10T10:57:21;3.67;;;2.20;;
6523;SDS011;3295;38.928;-77.052;2023-05-10T10:59:48;3.27;;;2.10;;
6523;SDS011;3295;38.928;-77.052;2023-05-10T11:02:34;4.10;;;2.17;;
6523;SDS011;3295;38.928;-77.052;2023-05-10T11:07:55;4.67;;;2.40;;
6523;SDS011;3295;38.928;-77.052;2023-05-10T11:10:23;5.20;;;2.40;;
6523;SDS011;3295;38.928;-77.052;2023-05-10T11:12:52;4.43;;;2.70;;
6523;SDS011;3295;38.928;-77.052;2023-05-10T11:15:28;3.43;;;2.20;;
6523;SDS011;3295;38.928;-77.052;2023-05-10T11:17:55;4.47;;;2.37;;
6523;SDS011;3295;38.928;-77.052;2023-05-10T11:20:22;3.30;;;1.90;;
6523;SDS011;3295;38.928;-77.052;2023-05-10T11:22:54;4.13;;;2.20;;
6523;SDS011;3295;38.928;-77.052;2023-05-10T11:25:26;3.93;;;2.40;;
6523;SDS011;3295;38.928;-77.052;2023-05-10T11:27:55;3.70;;;2.00;;
6523;SDS011;3295;38.928;-77.052;2023-05-10T11:30:22;3.33;;;2.13;;
6523;SDS011;3295;38.928;-77.052;2023-05-10T11:32:50;3.10;;;2.20;;
6523;SDS011;3295;38.928;-77.052;2023-05-10T11:35:17;5.13;;;2.50;;
6523;SDS011;3295;38.928;-77.052;2023-05-10T11:37:47;3.17;;;2.00;;
6523;SDS011;3295;38.928;-77.052;2023-05-10T11:40:14;4.97;;;2.20;;
6523;SDS011;3295;38.928;-77.052;2023-05-10T11:42:42;4.27;;;2.30;;
6523;SDS011;3295;38.928;-77.052;2023-05-10T11:45:11;4.90;;;1.90;;
6523;SDS011;3295;38.928;-77.052;2023-05-10T11:47:38;3.87;;;2.40;;
6523;SDS011;3295;38.928;-77.052;2023-05-10T11:50:08;5.07;;;2.50;;
6523;SDS011;3295;38.928;-77.052;2023-05-10T11:52:35;3.90;;;2.13;;
6523;SDS011;3295;38.928;-77.052;2023-05-10T11:55:04;5.83;;;2.80;;
6523;SDS011;3295;38.928;-77.052;2023-05-10T11:57:31;3.80;;;2.33;;
6523;SDS011;3295;38.928;-77.052;2023-05-10T11:59:58;7.93;;;2.40;;
6523;SDS011;3295;38.928;-77.052;2023-05-10T12:02:28;5.50;;;2.60;;
6523;SDS011;3295;38.928;-77.052;2023-05-10T12:04:56;5.00;;;2.57;;
6523;SDS011;3295;38.928;-77.052;2023-05-10T12:07:23;7.07;;;3.10;;
6523;SDS011;3295;38.928;-77.052;2023-05-10T12:10:04;4.73;;;2.43;;
6523;SDS011;3295;38.928;-77.052;2023-05-10T12:12:35;5.43;;;2.70;;
6523;SDS011;3295;38.928;-77.052;2023-05-10T12:15:02;5.33;;;2.70;;
6523;SDS011;3295;38.928;-77.052;2023-05-10T12:17:31;5.33;;;2.50;;
6523;SDS011;3295;38.928;-77.052;2023-05-10T12:19:59;2.70;;;1.67;;
6523;SDS011;3295;38.928;-77.052;2023-05-10T12:22:29;6.80;;;2.63;;
6523;SDS011;3295;38.928;-77.052;2023-05-10T12:24:57;4.73;;;2.40;;
6523;SDS011;3295;38.928;-77.052;2023-05-10T12:27:25;7.27;;;2.60;;
6523;SDS011;3295;38.928;-77.052;2023-05-10T12:29:59;4.93;;;2.30;;
6523;SDS011;3295;38.928;-77.052;2023-05-10T12:32:38;4.43;;;2.30;;
6523;SDS011;3295;38.928;-77.052;2023-05-10T12:35:06;4.60;;;2.17;;
6523;SDS011;3295;38.928;-77.052;2023-05-10T12:37:33;3.63;;;2.30;;
6523;SDS011;3295;38.928;-77.052;2023-05-10T12:40:05;2.97;;;2.00;;
6523;SDS011;3295;38.928;-77.052;2023-05-10T12:42:33;3.50;;;1.97;;
6523;SDS011;3295;38.928;-77.052;2023-05-10T12:45:01;3.50;;;2.00;;
6523;SDS011;3295;38.928;-77.052;2023-05-10T12:47:28;3.60;;;1.60;;
6523;SDS011;3295;38.928;-77.052;2023-05-10T12:49:57;4.37;;;1.90;;
6523;SDS011;3295;38.928;-77.052;2023-05-10T12:52:25;2.80;;;1.97;;
6523;SDS011;3295;38.928;-77.052;2023-05-10T12:54:52;3.40;;;1.80;;
6523;SDS011;3295;38.928;-77.052;2023-05-10T12:57:20;2.63;;;1.73;;
6523;SDS011;3295;38.928;-77.052;2023-05-10T12:59:47;2.57;;;1.67;;
6523;SDS011;3295;38.928;-77.052;2023-05-10T13:02:14;2.77;;;1.90;;
6523;SDS011;3295;38.928;-77.052;2023-05-10T13:04:43;3.53;;;1.80;;
6523;SDS011;3295;38.928;-77.052;2023-05-10T13:07:13;3.27;;;1.70;;
6523;SDS011;3295;38.928;-77.052;2023-05-10T13:09:40;3.40;;;1.70;;
6523;SDS011;3295;38.928;-77.052;2023-05-10T13:12:07;3.47;;;1.97;;
6523;SDS011;3295;38.928;-77.052;2023-05-10T13:14:35;2.83;;;1.60;;
6523;SDS011;3295;38.928;-77.052;2023-05-10T13:17:02;2.27;;;1.57;;
6523;SDS011;3295;38.928;-77.052;2023-05-10T13:19:29;3.40;;;1.93;;
6523;SDS011;3295;38.928;-77.052;2023-05-10T13:21:57;2.07;;;1.40;;
6523;SDS011;3295;38.928;-77.052;2023-05-10T13:24:25;2.83;;;1.83;;
6523;SDS011;3295;38.928;-77.052;2023-05-10T13:26:53;2.50;;;1.50;;
6523;SDS011;3295;38.928;-77.052;2023-05-10T13:29:20;3.30;;;1.83;;
6523;SDS011;3295;38.928;-77.052;2023-05-10T13:31:48;2.43;;;1.63;;
6523;SDS011;3295;38.928;-77.052;2023-05-10T13:34:15;1.47;;;1.30;;
6523;SDS011;3295;38.928;-77.052;2023-05-10T13:36:45;3.47;;;1.60;;
6523;SDS011;3295;38.928;-77.052;2023-05-10T13:39:13;1.87;;;1.40;;
6523;SDS011;3295;38.928;-77.052;2023-05-10T13:41:41;2.30;;;1.53;;
6523;SDS011;3295;38.928;-77.052;2023-05-10T13:44:09;1.77;;;1.30;;
6523;SDS011;3295;38.928;-77.052;2023-05-10T13:46:37;3.43;;;1.60;;
6523;SDS011;3295;38.928;-77.052;2023-05-10T13:49:04;2.10;;;1.50;;
6523;SDS011;3295;38.928;-77.052;2023-05-10T13:51:32;2.03;;;1.50;;
6523;SDS011;3295;38.928;-77.052;2023-05-10T13:54:00;2.00;;;1.50;;
6523;SDS011;3295;38.928;-77.052;2023-05-10T13:56:27;3.03;;;1.63;;
6523;SDS011;3295;38.928;-77.052;2023-05-10T13:58:56;3.53;;;1.63;;
6523;SDS011;3295;38.928;-77.052;2023-05-10T14:01:23;3.43;;;1.90;;
6523;SDS011;3295;38.928;-77.052;2023-05-10T14:03:51;2.83;;;1.50;;
6523;SDS011;3295;38.928;-77.052;2023-05-10T14:06:18;1.60;;;1.50;;
6523;SDS011;3295;38.928;-77.052;2023-05-10T14:08:45;1.87;;;1.37;;
6523;SDS011;3295;38.928;-77.052;2023-05-10T14:11:12;2.63;;;1.63;;
6523;SDS011;3295;38.928;-77.052;2023-05-10T14:13:40;1.97;;;1.47;;
6523;SDS011;3295;38.928;-77.052;2023-05-10T14:16:09;1.43;;;1.20;;
6523;SDS011;3295;38.928;-77.052;2023-05-10T14:18:36;5.07;;;1.40;;
6523;SDS011;3295;38.928;-77.052;2023-05-10T14:21:04;1.90;;;1.40;;
6523;SDS011;3295;38.928;-77.052;2023-05-10T14:23:31;4.23;;;1.70;;
6523;SDS011;3295;38.928;-77.052;2023-05-10T14:25:58;2.10;;;1.30;;
6523;SDS011;3295;38.928;-77.052;2023-05-10T14:28:26;3.07;;;1.30;;
6523;SDS011;3295;38.928;-77.052;2023-05-10T14:30:53;2.10;;;1.40;;
6523;SDS011;3295;38.928;-77.052;2023-05-10T14:33:23;3.37;;;1.30;;
6523;SDS011;3295;38.928;-77.052;2023-05-10T14:35:50;2.10;;;1.40;;
6523;SDS011;3295;38.928;-77.052;2023-05-10T14:38:18;3.20;;;1.30;;
6523;SDS011;3295;38.928;-77.052;2023-05-10T14:40:45;1.57;;;1.17;;
6523;SDS011;3295;38.928;-77.052;2023-05-10T14:43:12;1.67;;;1.20;;
6523;SDS011;3295;38.928;-77.052;2023-05-10T14:45:39;2.57;;;1.57;;
6523;SDS011;3295;38.928;-77.052;2023-05-10T14:48:07;1.63;;;1.47;;
6523;SDS011;3295;38.928;-77.052;2023-05-10T14:50:39;1.60;;;1.30;;
6523;SDS011;3295;38.928;-77.052;2023-05-10T14:53:06;2.43;;;1.30;;
6523;SDS011;3295;38.928;-77.052;2023-05-10T14:55:33;2.27;;;1.40;;
6523;SDS011;3295;38.928;-77.052;2023-05-10T14:58:01;1.67;;;1.10;;
6523;SDS011;3295;38.928;-77.052;2023-05-10T15:00:29;3.40;;;1.50;;